createdAt,value
2019-05-22T00:00:25.252Z,0.00
2019-05-22T00:01:25.155Z,0.00
2019-05-22T00:02:25.065Z,0.00
2019-05-22T00:03:24.984Z,0.00
2019-05-22T00:04:24.867Z,0.00
2019-05-22T00:05:24.772Z,0.00
2019-05-22T00:06:24.720Z,0.00
2019-05-22T00:07:24.581Z,0.00
2019-05-22T00:08:24.502Z,0.00
2019-05-22T00:09:24.393Z,0.00
2019-05-22T00:10:24.298Z,0.00
2019-05-22T00:11:24.201Z,0.00
2019-05-22T00:12:24.106Z,0.00
2019-05-22T00:13:24.041Z,0.00
2019-05-22T00:14:23.916Z,0.00
2019-05-22T00:15:23.825Z,0.00
2019-05-22T00:16:23.727Z,0.00
2019-05-22T00:17:23.629Z,0.00
2019-05-22T00:18:23.550Z,0.00
2019-05-22T00:19:23.438Z,0.00
2019-05-22T00:20:23.339Z,0.00
2019-05-22T00:21:23.248Z,0.00
2019-05-22T00:22:23.151Z,0.00
2019-05-22T00:23:23.084Z,0.00
2019-05-22T00:24:22.962Z,0.00
2019-05-22T00:25:22.872Z,0.00
2019-05-22T00:26:22.772Z,0.00
2019-05-22T00:27:22.678Z,0.00
2019-05-22T00:28:22.598Z,0.00
2019-05-22T00:29:22.488Z,0.00
2019-05-22T00:30:22.388Z,0.00
2019-05-22T00:31:22.292Z,0.00
2019-05-22T00:32:22.195Z,0.00
2019-05-22T00:33:22.132Z,0.00
2019-05-22T00:34:22.052Z,0.00
2019-05-22T00:35:21.914Z,0.00
2019-05-22T00:36:22.120Z,0.00
2019-05-22T00:37:21.768Z,0.00
2019-05-22T00:38:21.644Z,0.00
2019-05-22T00:39:21.530Z,0.00
2019-05-22T00:40:21.437Z,0.00
2019-05-22T00:41:21.340Z,0.00
2019-05-22T00:42:21.251Z,0.00
2019-05-22T00:43:21.151Z,0.00
2019-05-22T00:44:21.070Z,0.00
2019-05-22T00:45:20.961Z,0.00
2019-05-22T00:46:20.889Z,0.00
2019-05-22T00:47:20.767Z,0.00
2019-05-22T00:48:20.674Z,0.00
2019-05-22T00:49:20.591Z,0.00
2019-05-22T00:50:20.483Z,0.00
2019-05-22T00:51:20.389Z,0.00
2019-05-22T00:52:20.290Z,0.00
2019-05-22T00:53:20.195Z,0.00
2019-05-22T00:54:20.116Z,0.00
2019-05-22T00:55:20.009Z,0.00
2019-05-22T00:56:19.909Z,0.00
2019-05-22T00:57:19.815Z,0.00
2019-05-22T00:58:19.731Z,0.00
2019-05-22T00:59:20.307Z,0.00
2019-05-22T01:00:19.528Z,0.00
2019-05-22T01:01:19.433Z,0.00
2019-05-22T01:02:19.386Z,0.00
2019-05-22T01:03:19.266Z,0.00
2019-05-22T01:04:19.160Z,0.00
2019-05-22T01:05:19.051Z,0.00
2019-05-22T01:06:18.957Z,0.00
2019-05-22T01:07:18.858Z,0.00
2019-05-22T01:08:18.763Z,0.00
2019-05-22T01:09:18.681Z,0.00
2019-05-22T01:10:18.574Z,0.00
2019-05-22T01:11:18.476Z,0.00
2019-05-22T01:12:18.381Z,0.00
2019-05-22T01:13:18.289Z,0.00
2019-05-22T01:14:18.205Z,0.00
2019-05-22T01:15:18.094Z,0.00
2019-05-22T01:16:18.002Z,0.00
2019-05-22T01:17:17.902Z,0.00
2019-05-22T01:18:17.812Z,0.00
2019-05-22T01:19:17.726Z,0.00
2019-05-22T01:20:17.618Z,0.00
2019-05-22T01:21:17.523Z,0.00
2019-05-22T01:22:17.426Z,0.00
2019-05-22T01:23:17.332Z,0.00
2019-05-22T01:24:17.248Z,0.00
2019-05-22T01:25:17.138Z,0.00
2019-05-22T01:26:17.044Z,0.00
2019-05-22T01:27:16.948Z,0.00
2019-05-22T01:28:16.855Z,0.00
2019-05-22T01:29:16.772Z,0.00
2019-05-22T01:30:16.663Z,0.00
2019-05-22T01:31:16.566Z,0.00
2019-05-22T01:32:16.508Z,0.00
2019-05-22T01:33:16.375Z,0.00
2019-05-22T01:34:16.295Z,0.00
2019-05-22T01:35:16.187Z,0.00
2019-05-22T01:36:16.094Z,0.00
2019-05-22T01:37:15.992Z,0.00
2019-05-22T01:38:15.897Z,0.00
2019-05-22T01:39:15.832Z,0.00
2019-05-22T01:40:15.707Z,0.00
2019-05-22T01:41:15.612Z,0.00
2019-05-22T01:42:15.754Z,0.00
2019-05-22T01:43:15.421Z,0.00
2019-05-22T01:44:15.326Z,0.00
2019-05-22T01:45:15.244Z,0.00
2019-05-22T01:46:15.137Z,0.00
2019-05-22T01:47:15.039Z,0.00
2019-05-22T01:48:14.945Z,0.00
2019-05-22T01:49:14.848Z,0.00
2019-05-22T01:50:14.765Z,0.00
2019-05-22T01:51:14.654Z,0.00
2019-05-22T01:52:14.677Z,0.00
2019-05-22T01:53:14.464Z,0.00
2019-05-22T01:54:14.370Z,0.00
2019-05-22T01:55:14.288Z,0.00
2019-05-22T01:56:14.185Z,0.00
2019-05-22T01:57:14.085Z,0.00
2019-05-22T01:58:13.987Z,0.00
2019-05-22T01:59:13.999Z,0.00
2019-05-22T02:00:13.810Z,0.00
2019-05-22T02:01:13.703Z,0.00
2019-05-22T02:02:13.607Z,0.00
2019-05-22T02:03:13.511Z,0.00
2019-05-22T02:04:15.012Z,0.00
2019-05-22T02:05:13.336Z,0.00
2019-05-22T02:06:13.330Z,0.00
2019-05-22T02:07:13.131Z,0.00
2019-05-22T02:08:13.030Z,0.00
2019-05-22T02:09:12.935Z,0.00
2019-05-22T02:10:12.855Z,0.00
2019-05-22T02:11:12.745Z,0.00
2019-05-22T02:12:12.650Z,0.00
2019-05-22T02:13:12.674Z,0.00
2019-05-22T02:14:12.460Z,0.00
2019-05-22T02:15:12.377Z,0.00
2019-05-22T02:16:12.268Z,0.00
2019-05-22T02:17:12.194Z,0.00
2019-05-22T02:18:12.083Z,0.00
2019-05-22T02:19:11.984Z,0.00
2019-05-22T02:20:12.007Z,0.00
2019-05-22T02:21:11.792Z,0.00
2019-05-22T02:22:11.702Z,0.00
2019-05-22T02:23:11.600Z,0.00
2019-05-22T02:24:11.524Z,0.00
2019-05-22T02:25:11.966Z,0.00
2019-05-22T02:26:11.327Z,0.00
2019-05-22T02:27:11.326Z,0.00
2019-05-22T02:28:11.126Z,0.00
2019-05-22T02:29:11.028Z,0.00
2019-05-22T02:30:10.934Z,0.00
2019-05-22T02:31:10.853Z,0.00
2019-05-22T02:32:10.756Z,0.00
2019-05-22T02:33:10.650Z,0.00
2019-05-22T02:34:10.655Z,0.00
2019-05-22T02:35:10.458Z,0.00
2019-05-22T02:36:10.377Z,0.00
2019-05-22T02:37:10.271Z,0.00
2019-05-22T02:38:10.168Z,0.00
2019-05-22T02:39:10.073Z,0.00
2019-05-22T02:40:09.978Z,0.00
2019-05-22T02:41:14.139Z,0.00
2019-05-22T02:42:09.788Z,0.00
2019-05-22T02:43:09.693Z,0.00
2019-05-22T02:44:09.597Z,0.00
2019-05-22T02:45:09.501Z,0.00
2019-05-22T02:46:09.420Z,0.00
2019-05-22T02:47:19.165Z,0.00
2019-05-22T02:48:09.315Z,0.00
2019-05-22T02:49:09.118Z,0.00
2019-05-22T02:50:09.023Z,0.00
2019-05-22T02:51:08.967Z,0.00
2019-05-22T02:52:08.909Z,0.00
2019-05-22T02:53:08.758Z,4.00
2019-05-22T02:54:08.644Z,4.00
2019-05-22T02:55:08.653Z,4.00
2019-05-22T02:56:08.469Z,4.00
2019-05-22T02:57:08.354Z,0.00
2019-05-22T02:58:08.258Z,0.00
2019-05-22T02:59:08.189Z,4.00
2019-05-22T03:00:08.069Z,4.00
2019-05-22T03:01:07.973Z,4.00
2019-05-22T03:02:08.018Z,12.00
2019-05-22T03:03:07.779Z,8.00
2019-05-22T03:04:07.690Z,8.00
2019-05-22T03:05:07.590Z,8.00
2019-05-22T03:06:07.498Z,8.00
2019-05-22T03:07:07.414Z,8.00
2019-05-22T03:08:07.411Z,12.00
2019-05-22T03:09:07.208Z,16.00
2019-05-22T03:10:07.117Z,16.00
2019-05-22T03:11:07.017Z,12.00
2019-05-22T03:12:06.938Z,16.00
2019-05-22T03:13:06.826Z,16.00
2019-05-22T03:14:06.731Z,20.00
2019-05-22T03:15:06.636Z,20.00
2019-05-22T03:16:06.546Z,24.00
2019-05-22T03:17:06.458Z,20.00
2019-05-22T03:18:06.349Z,28.00
2019-05-22T03:19:09.296Z,28.00
2019-05-22T03:20:06.162Z,28.00
2019-05-22T03:21:06.064Z,28.00
2019-05-22T03:22:05.985Z,24.00
2019-05-22T03:23:05.872Z,32.00
2019-05-22T03:24:05.784Z,28.00
2019-05-22T03:25:05.707Z,40.00
2019-05-22T03:26:05.606Z,44.00
2019-05-22T03:27:05.504Z,52.00
2019-05-22T03:28:05.396Z,60.00
2019-05-22T03:29:05.299Z,52.00
2019-05-22T03:30:05.235Z,68.00
2019-05-22T03:31:05.111Z,64.00
2019-05-22T03:32:05.021Z,60.00
2019-05-22T03:33:04.945Z,64.00
2019-05-22T03:34:04.825Z,64.00
2019-05-22T03:35:04.733Z,76.00
2019-05-22T03:36:04.647Z,96.00
2019-05-22T03:37:04.539Z,96.00
2019-05-22T03:38:04.527Z,108.00
2019-05-22T03:39:04.352Z,112.00
2019-05-22T03:40:04.248Z,104.00
2019-05-22T03:41:04.152Z,88.00
2019-05-22T03:42:04.057Z,120.00
2019-05-22T03:43:03.980Z,136.00
2019-05-22T03:44:03.868Z,132.00
2019-05-22T03:45:03.774Z,200.00
2019-05-22T03:46:03.678Z,244.00
2019-05-22T03:47:03.580Z,256.00
2019-05-22T03:48:03.497Z,232.00
2019-05-22T03:49:03.391Z,276.00
2019-05-22T03:50:03.294Z,288.00
2019-05-22T03:51:03.199Z,200.00
2019-05-22T03:52:03.103Z,196.00
2019-05-22T03:53:03.026Z,224.00
2019-05-22T03:54:02.913Z,260.00
2019-05-22T03:55:02.817Z,244.00
2019-05-22T03:56:02.738Z,296.00
2019-05-22T03:57:02.625Z,188.00
2019-05-22T03:58:02.560Z,196.00
2019-05-22T03:59:02.439Z,192.00
2019-05-22T04:00:02.391Z,244.00
2019-05-22T04:01:02.250Z,272.00
2019-05-22T04:02:02.147Z,236.00
2019-05-22T04:03:02.065Z,196.00
2019-05-22T04:04:01.965Z,276.00
2019-05-22T04:05:01.873Z,232.00
2019-05-22T04:06:01.769Z,204.00
2019-05-22T04:07:01.675Z,232.00
2019-05-22T04:08:01.585Z,252.00
2019-05-22T04:09:01.478Z,268.00
2019-05-22T04:10:01.383Z,244.00
2019-05-22T04:11:01.287Z,276.00
2019-05-22T04:12:01.202Z,312.00
2019-05-22T04:13:01.102Z,312.00
2019-05-22T04:14:01.013Z,296.00
2019-05-22T04:15:00.904Z,288.00
2019-05-22T04:16:00.808Z,400.00
2019-05-22T04:17:00.715Z,412.00
2019-05-22T04:18:00.626Z,360.00
2019-05-22T04:19:00.532Z,364.00
2019-05-22T04:20:00.423Z,476.00
2019-05-22T04:21:00.347Z,456.00
2019-05-22T04:22:00.235Z,456.00
2019-05-22T04:23:00.135Z,440.00
2019-05-22T04:24:00.065Z,420.00
2019-05-22T04:25:00.055Z,472.00
2019-05-22T04:25:59.849Z,400.00
2019-05-22T04:26:59.752Z,456.00
2019-05-22T04:27:59.659Z,360.00
2019-05-22T04:28:59.579Z,320.00
2019-05-22T04:29:59.465Z,328.00
2019-05-22T04:30:59.980Z,396.00
2019-05-22T04:31:59.277Z,480.00
2019-05-22T04:32:59.182Z,488.00
2019-05-22T04:33:59.097Z,432.00
2019-05-22T04:34:59.068Z,516.00
2019-05-22T04:35:58.890Z,432.00
2019-05-22T04:36:58.799Z,464.00
2019-05-22T04:37:58.703Z,428.00
2019-05-22T04:38:58.723Z,364.00
2019-05-22T04:39:58.508Z,484.00
2019-05-22T04:40:58.408Z,448.00
2019-05-22T04:41:58.341Z,524.00
2019-05-22T04:42:58.217Z,684.00
2019-05-22T04:43:58.140Z,728.00
2019-05-22T04:44:58.028Z,460.00
2019-05-22T04:45:58.029Z,572.00
2019-05-22T04:46:57.850Z,700.00
2019-05-22T04:47:57.737Z,944.00
2019-05-22T04:48:57.659Z,876.00
2019-05-22T04:50:07.408Z,1276.00
2019-05-22T04:50:57.450Z,1260.00
2019-05-22T04:51:57.353Z,1272.00
2019-05-22T04:52:57.363Z,1652.00
2019-05-22T04:53:57.179Z,1384.00
2019-05-22T04:54:57.072Z,1368.00
2019-05-22T04:55:56.972Z,1492.00
2019-05-22T04:56:56.878Z,1436.00
2019-05-22T04:57:56.777Z,1216.00
2019-05-22T04:58:56.685Z,1656.00
2019-05-22T04:59:56.698Z,1180.00
2019-05-22T05:00:56.490Z,976.00
2019-05-22T05:01:56.394Z,1132.00
2019-05-22T05:02:56.308Z,868.00
2019-05-22T05:03:56.203Z,964.00
2019-05-22T05:04:56.120Z,1080.00
2019-05-22T05:05:56.019Z,1272.00
2019-05-22T05:06:56.018Z,1580.00
2019-05-22T05:07:55.832Z,1300.00
2019-05-22T05:08:55.728Z,1352.00
2019-05-22T05:09:56.369Z,1140.00
2019-05-22T05:10:55.551Z,1000.00
2019-05-22T05:11:55.433Z,864.00
2019-05-22T05:12:55.338Z,1308.00
2019-05-22T05:13:55.350Z,1064.00
2019-05-22T05:14:55.157Z,1148.00
2019-05-22T05:15:55.049Z,964.00
2019-05-22T05:16:54.950Z,1016.00
2019-05-22T05:17:54.857Z,1244.00
2019-05-22T05:18:54.763Z,1252.00
2019-05-22T05:19:54.680Z,1092.00
2019-05-22T05:20:54.679Z,1076.00
2019-05-22T05:21:54.480Z,1508.00
2019-05-22T05:22:54.374Z,1340.00
2019-05-22T05:23:54.278Z,1400.00
2019-05-22T05:24:55.805Z,1196.00
2019-05-22T05:25:54.086Z,1120.00
2019-05-22T05:26:54.012Z,1088.00
2019-05-22T05:27:54.000Z,1248.00
2019-05-22T05:28:53.798Z,1392.00
2019-05-22T05:29:53.724Z,1344.00
2019-05-22T05:30:53.610Z,1296.00
2019-05-22T05:31:53.511Z,1344.00
2019-05-22T05:32:53.415Z,1516.00
2019-05-22T05:33:53.323Z,1484.00
2019-05-22T05:34:53.342Z,1504.00
2019-05-22T05:35:53.125Z,1596.00
2019-05-22T05:36:53.032Z,1552.00
2019-05-22T05:37:52.933Z,1568.00
2019-05-22T05:38:52.838Z,1852.00
2019-05-22T05:39:52.770Z,1940.00
2019-05-22T05:40:52.648Z,2056.00
2019-05-22T05:41:52.550Z,1956.00
2019-05-22T05:42:52.453Z,1820.00
2019-05-22T05:43:52.357Z,1872.00
2019-05-22T05:44:52.277Z,1920.00
2019-05-22T05:45:52.173Z,1732.00
2019-05-22T05:46:52.070Z,2248.00
2019-05-22T05:47:51.977Z,1940.00
2019-05-22T05:48:51.877Z,2024.00
2019-05-22T05:49:51.789Z,1600.00
2019-05-22T05:50:51.718Z,1860.00
2019-05-22T05:51:51.595Z,1556.00
2019-05-22T05:52:51.597Z,2020.00
2019-05-22T05:53:51.422Z,1916.00
2019-05-22T05:54:51.345Z,1912.00
2019-05-22T05:55:51.221Z,1980.00
2019-05-22T05:56:51.112Z,1968.00
2019-05-22T05:57:51.015Z,2532.00
2019-05-22T05:58:50.918Z,2300.00
2019-05-22T05:59:50.832Z,2264.00
2019-05-22T06:00:50.742Z,2032.00
2019-05-22T06:01:50.630Z,2188.00
2019-05-22T06:02:56.404Z,2508.00
2019-05-22T06:03:50.437Z,3000.00
2019-05-22T06:04:50.639Z,2892.00
2019-05-22T06:05:50.262Z,2760.00
2019-05-22T06:06:50.154Z,2928.00
2019-05-22T06:07:50.055Z,3076.00
2019-05-22T06:08:49.959Z,3280.00
2019-05-22T06:09:49.861Z,2884.00
2019-05-22T06:10:49.788Z,2808.00
2019-05-22T06:11:49.675Z,2924.00
2019-05-22T06:12:49.575Z,3024.00
2019-05-22T06:13:49.478Z,2540.00
2019-05-22T06:14:49.381Z,2276.00
2019-05-22T06:15:49.306Z,2328.00
2019-05-22T06:16:49.191Z,2452.00
2019-05-22T06:17:49.095Z,2240.00
2019-05-22T06:18:48.998Z,2544.00
2019-05-22T06:19:48.908Z,2572.00
2019-05-22T06:21:02.712Z,2436.00
2019-05-22T06:21:48.709Z,2648.00
2019-05-22T06:22:48.613Z,2684.00
2019-05-22T06:23:48.520Z,2260.00
2019-05-22T06:24:48.423Z,2740.00
2019-05-22T06:25:48.344Z,2496.00
2019-05-22T06:26:48.231Z,3036.00
2019-05-22T06:27:48.136Z,2300.00
2019-05-22T06:28:48.040Z,2432.00
2019-05-22T06:29:47.945Z,2648.00
2019-05-22T06:30:47.861Z,2404.00
2019-05-22T06:31:47.752Z,2568.00
2019-05-22T06:32:47.654Z,2232.00
2019-05-22T06:33:47.561Z,2576.00
2019-05-22T06:34:47.466Z,2352.00
2019-05-22T06:35:47.368Z,1920.00
2019-05-22T06:36:47.288Z,2068.00
2019-05-22T06:37:47.210Z,2424.00
2019-05-22T06:38:47.080Z,2300.00
2019-05-22T06:39:46.982Z,2112.00
2019-05-22T06:40:46.889Z,2172.00
2019-05-22T06:41:46.809Z,2044.00
2019-05-22T06:42:46.694Z,2500.00
2019-05-22T06:43:46.601Z,2748.00
2019-05-22T06:44:46.504Z,2824.00
2019-05-22T06:45:46.412Z,2432.00
2019-05-22T06:46:46.399Z,3572.00
2019-05-22T06:47:46.217Z,2788.00
2019-05-22T06:48:46.133Z,3132.00
2019-05-22T06:49:46.026Z,3112.00
2019-05-22T06:50:49.132Z,3172.00
2019-05-22T06:51:45.848Z,3776.00
2019-05-22T06:52:45.743Z,3840.00
2019-05-22T06:53:45.641Z,2724.00
2019-05-22T06:54:45.546Z,2836.00
2019-05-22T06:55:45.452Z,2608.00
2019-05-22T06:56:45.367Z,2884.00
2019-05-22T06:57:45.258Z,2884.00
2019-05-22T06:58:45.166Z,2556.00
2019-05-22T06:59:45.137Z,2872.00
2019-05-22T07:00:44.970Z,2716.00
2019-05-22T07:01:44.906Z,2548.00
2019-05-22T07:02:44.777Z,2652.00
2019-05-22T07:03:44.683Z,2244.00
2019-05-22T07:04:44.592Z,2396.00
2019-05-22T07:05:44.489Z,2580.00
2019-05-22T07:06:44.416Z,3480.00
2019-05-22T07:07:44.298Z,3684.00
2019-05-22T07:08:44.203Z,3488.00
2019-05-22T07:09:44.106Z,3868.00
2019-05-22T07:10:44.032Z,3940.00
2019-05-22T07:11:43.930Z,3440.00
2019-05-22T07:12:43.931Z,3408.00
2019-05-22T07:13:43.726Z,3560.00
2019-05-22T07:14:43.629Z,4100.00
2019-05-22T07:15:43.551Z,4728.00
2019-05-22T07:16:43.450Z,4148.00
2019-05-22T07:17:43.431Z,4912.00
2019-05-22T07:18:43.251Z,4684.00
2019-05-22T07:19:43.148Z,4648.00
2019-05-22T07:20:43.051Z,4112.00
2019-05-22T07:21:42.969Z,5332.00
2019-05-22T07:22:42.877Z,4104.00
2019-05-22T07:23:42.764Z,4984.00
2019-05-22T07:24:42.671Z,4144.00
2019-05-22T07:25:42.583Z,4772.00
2019-05-22T07:26:42.589Z,4480.00
2019-05-22T07:27:42.394Z,4768.00
2019-05-22T07:28:42.288Z,4264.00
2019-05-22T07:29:42.189Z,4900.00
2019-05-22T07:30:42.093Z,5008.00
2019-05-22T07:31:42.002Z,5964.00
2019-05-22T07:32:41.919Z,5388.00
2019-05-22T07:33:42.066Z,4824.00
2019-05-22T07:34:41.714Z,4856.00
2019-05-22T07:36:04.885Z,4772.00
2019-05-22T07:36:41.517Z,5276.00
2019-05-22T07:37:41.439Z,5540.00
2019-05-22T07:38:41.348Z,5956.00
2019-05-22T07:39:41.230Z,5276.00
2019-05-22T07:40:41.261Z,5572.00
2019-05-22T07:41:41.041Z,5720.00
2019-05-22T07:42:40.957Z,4888.00
2019-05-22T07:43:41.955Z,5128.00
2019-05-22T07:44:40.751Z,4524.00
2019-05-22T07:45:40.849Z,4552.00
2019-05-22T07:46:40.563Z,3740.00
2019-05-22T07:47:40.589Z,3408.00
2019-05-22T07:48:40.370Z,3896.00
2019-05-22T07:49:40.273Z,5308.00
2019-05-22T07:50:40.176Z,5944.00
2019-05-22T07:51:53.244Z,7764.00
2019-05-22T07:52:40.000Z,7036.00
2019-05-22T07:53:39.889Z,5804.00
2019-05-22T07:54:39.897Z,5624.00
2019-05-22T07:55:39.702Z,7024.00
2019-05-22T07:56:39.601Z,6460.00
2019-05-22T07:57:39.509Z,6420.00
2019-05-22T07:58:39.424Z,6532.00
2019-05-22T07:59:39.320Z,6140.00
2019-05-22T08:00:39.245Z,5748.00
2019-05-22T08:01:39.225Z,5236.00
2019-05-22T08:02:39.030Z,5092.00
2019-05-22T08:03:38.946Z,5296.00
2019-05-22T08:04:38.836Z,5780.00
2019-05-22T08:05:38.762Z,5012.00
2019-05-22T08:06:38.643Z,5372.00
2019-05-22T08:07:38.553Z,4980.00
2019-05-22T08:08:38.577Z,4664.00
2019-05-22T08:09:38.358Z,5360.00
2019-05-22T08:10:38.259Z,4664.00
2019-05-22T08:11:38.168Z,4592.00
2019-05-22T08:12:38.069Z,4092.00
2019-05-22T08:13:37.998Z,5396.00
2019-05-22T08:14:37.879Z,4496.00
2019-05-22T08:15:37.895Z,4876.00
2019-05-22T08:16:37.687Z,6612.00
2019-05-22T08:17:37.592Z,6428.00
2019-05-22T08:18:37.523Z,6180.00
2019-05-22T08:19:37.401Z,7064.00
2019-05-22T08:20:37.328Z,6308.00
2019-05-22T08:21:37.212Z,5636.00
2019-05-22T08:22:37.225Z,6328.00
2019-05-22T08:23:37.045Z,6244.00
2019-05-22T08:24:36.921Z,5524.00
2019-05-22T08:25:36.827Z,4812.00
2019-05-22T08:26:53.191Z,6524.00
2019-05-22T08:27:36.634Z,5692.00
2019-05-22T08:28:36.572Z,4980.00
2019-05-22T08:29:36.553Z,5436.00
2019-05-22T08:30:36.348Z,5932.00
2019-05-22T08:31:36.260Z,7608.00
2019-05-22T08:32:36.162Z,9456.00
2019-05-22T08:33:36.078Z,8040.00
2019-05-22T08:34:35.966Z,7568.00
2019-05-22T08:35:35.872Z,7856.00
2019-05-22T08:36:38.578Z,8040.00
2019-05-22T08:37:35.682Z,7596.00
2019-05-22T08:38:35.601Z,7100.00
2019-05-22T08:39:35.491Z,6652.00
2019-05-22T08:40:35.399Z,6804.00
2019-05-22T08:41:35.301Z,5324.00
2019-05-22T08:42:35.695Z,5224.00
2019-05-22T08:43:56.104Z,5136.00
2019-05-22T08:44:35.027Z,4356.00
2019-05-22T08:45:34.921Z,4140.00
2019-05-22T08:46:34.823Z,3964.00
2019-05-22T08:47:34.756Z,4700.00
2019-05-22T08:48:34.639Z,5032.00
2019-05-22T08:49:34.553Z,5008.00
2019-05-22T08:50:34.474Z,6116.00
2019-05-22T08:51:34.347Z,5920.00
2019-05-22T08:52:34.252Z,5916.00
2019-05-22T08:53:46.544Z,6608.00
2019-05-22T08:54:34.075Z,6532.00
2019-05-22T08:55:33.967Z,5844.00
2019-05-22T08:56:33.870Z,5932.00
2019-05-22T08:57:33.778Z,7188.00
2019-05-22T08:58:33.682Z,7644.00
2019-05-22T08:59:33.604Z,7020.00
2019-05-22T09:00:33.494Z,7096.00
2019-05-22T09:01:33.401Z,7168.00
2019-05-22T09:02:33.301Z,7552.00
2019-05-22T09:03:33.204Z,8416.00
2019-05-22T09:04:33.124Z,8852.00
2019-05-22T09:05:33.018Z,8792.00
2019-05-22T09:06:32.919Z,7376.00
2019-05-22T09:07:32.825Z,7380.00
2019-05-22T09:08:32.732Z,6528.00
2019-05-22T09:09:32.651Z,7140.00
2019-05-22T09:10:32.543Z,6820.00
2019-05-22T09:11:32.446Z,5356.00
2019-05-22T09:12:32.406Z,4648.00
2019-05-22T09:13:32.252Z,4264.00
2019-05-22T09:14:32.170Z,5324.00
2019-05-22T09:15:32.062Z,5412.00
2019-05-22T09:16:31.969Z,6108.00
2019-05-22T09:17:31.873Z,7100.00
2019-05-22T09:18:31.792Z,7140.00
2019-05-22T09:19:31.692Z,7780.00
2019-05-22T09:20:46.440Z,8200.00
2019-05-22T09:21:31.490Z,7988.00
2019-05-22T09:22:40.040Z,7156.00
2019-05-22T09:23:31.301Z,6076.00
2019-05-22T09:24:31.204Z,5804.00
2019-05-22T09:25:31.125Z,6056.00
2019-05-22T09:26:31.019Z,5712.00
2019-05-22T09:27:30.927Z,6244.00
2019-05-22T09:28:30.832Z,6580.00
2019-05-22T09:29:30.735Z,6768.00
2019-05-22T09:30:30.649Z,6304.00
2019-05-22T09:31:30.540Z,5848.00
2019-05-22T09:32:30.445Z,6080.00
2019-05-22T09:33:30.358Z,6312.00
2019-05-22T09:34:30.259Z,6972.00
2019-05-22T09:35:30.172Z,7028.00
2019-05-22T09:36:30.064Z,6816.00
2019-05-22T09:37:29.969Z,6524.00
2019-05-22T09:38:29.889Z,6372.00
2019-05-22T09:39:29.791Z,6024.00
2019-05-22T09:40:29.699Z,5940.00
2019-05-22T09:41:29.595Z,6436.00
2019-05-22T09:42:29.494Z,5824.00
2019-05-22T09:43:29.404Z,6860.00
2019-05-22T09:44:29.303Z,7652.00
2019-05-22T09:45:29.226Z,8220.00
2019-05-22T09:46:29.112Z,7256.00
2019-05-22T09:47:29.017Z,6440.00
2019-05-22T09:48:28.923Z,7644.00
2019-05-22T09:49:28.827Z,6748.00
2019-05-22T09:50:28.751Z,6556.00
2019-05-22T09:51:28.653Z,6456.00
2019-05-22T09:52:28.643Z,5788.00
2019-05-22T09:53:28.448Z,5928.00
2019-05-22T09:54:28.353Z,6392.00
2019-05-22T09:55:28.259Z,5720.00
2019-05-22T09:56:28.175Z,5280.00
2019-05-22T09:57:28.085Z,4980.00
2019-05-22T09:58:27.970Z,4728.00
2019-05-22T09:59:27.975Z,4576.00
2019-05-22T10:00:27.781Z,4436.00
2019-05-22T10:01:27.702Z,4772.00
2019-05-22T10:02:27.594Z,4632.00
2019-05-22T10:03:27.495Z,4176.00
2019-05-22T10:04:27.432Z,4376.00
2019-05-22T10:05:27.306Z,4540.00
2019-05-22T10:06:27.329Z,4128.00
2019-05-22T10:07:27.118Z,4312.00
2019-05-22T10:08:27.019Z,4196.00
2019-05-22T10:09:26.936Z,4416.00
2019-05-22T10:10:26.831Z,5280.00
2019-05-22T10:11:26.756Z,5812.00
2019-05-22T10:12:26.642Z,5696.00
2019-05-22T10:13:29.116Z,5940.00
2019-05-22T10:14:26.450Z,6200.00
2019-05-22T10:15:26.438Z,6404.00
2019-05-22T10:16:26.278Z,5704.00
2019-05-22T10:17:26.166Z,6380.00
2019-05-22T10:18:26.070Z,6908.00
2019-05-22T10:19:25.977Z,6736.00
2019-05-22T10:20:25.984Z,7088.00
2019-05-22T10:21:25.802Z,6484.00
2019-05-22T10:22:25.691Z,7680.00
2019-05-22T10:23:25.596Z,7392.00
2019-05-22T10:24:25.527Z,8456.00
2019-05-22T10:25:25.414Z,7876.00
2019-05-22T10:26:25.324Z,7584.00
2019-05-22T10:27:25.320Z,7728.00
2019-05-22T10:28:25.134Z,7652.00
2019-05-22T10:29:25.055Z,8668.00
2019-05-22T10:30:24.937Z,9124.00
2019-05-22T10:31:24.840Z,8784.00
2019-05-22T10:32:24.760Z,9320.00
2019-05-22T10:33:24.648Z,7696.00
2019-05-22T10:34:24.654Z,7960.00
2019-05-22T10:35:24.458Z,8532.00
2019-05-22T10:36:24.365Z,9396.00
2019-05-22T10:37:24.282Z,9568.00
2019-05-22T10:38:24.172Z,10028.00
2019-05-22T10:39:24.843Z,8948.00
2019-05-22T10:40:23.990Z,8476.00
2019-05-22T10:41:23.996Z,9372.00
2019-05-22T10:42:23.811Z,9172.00
2019-05-22T10:43:23.698Z,9472.00
2019-05-22T10:44:23.603Z,9384.00
2019-05-22T10:45:23.508Z,9052.00
2019-05-22T10:46:23.417Z,8608.00
2019-05-22T10:47:23.335Z,9708.00
2019-05-22T10:48:23.347Z,8740.00
2019-05-22T10:49:23.130Z,7248.00
2019-05-22T10:50:23.035Z,6972.00
2019-05-22T10:51:22.945Z,6400.00
2019-05-22T10:52:22.861Z,6388.00
2019-05-22T10:53:33.153Z,6172.00
2019-05-22T10:54:22.656Z,7564.00
2019-05-22T10:55:22.677Z,8772.00
2019-05-22T10:56:22.472Z,6140.00
2019-05-22T10:57:22.391Z,5408.00
2019-05-22T10:58:22.278Z,5996.00
2019-05-22T10:59:22.200Z,5124.00
2019-05-22T11:00:22.091Z,5348.00
2019-05-22T11:01:21.996Z,5352.00
2019-05-22T11:02:22.019Z,4620.00
2019-05-22T11:03:21.804Z,4324.00
2019-05-22T11:04:21.717Z,5772.00
2019-05-22T11:05:21.624Z,6272.00
2019-05-22T11:06:21.524Z,7296.00
2019-05-22T11:07:21.440Z,10568.00
2019-05-22T11:08:21.347Z,10044.00
2019-05-22T11:09:21.251Z,10824.00
2019-05-22T11:10:21.146Z,11956.00
2019-05-22T11:11:21.054Z,11556.00
2019-05-22T11:12:20.987Z,10892.00
2019-05-22T11:13:20.863Z,10340.00
2019-05-22T11:14:20.762Z,8960.00
2019-05-22T11:15:20.669Z,9016.00
2019-05-22T11:16:20.582Z,8808.00
2019-05-22T11:17:20.486Z,7076.00
2019-05-22T11:18:20.402Z,6844.00
2019-05-22T11:19:20.337Z,6152.00
2019-05-22T11:20:20.203Z,6144.00
2019-05-22T11:21:20.104Z,6156.00
2019-05-22T11:22:20.010Z,5524.00
2019-05-22T11:23:20.340Z,5732.00
2019-05-22T11:24:19.820Z,5732.00
2019-05-22T11:25:19.730Z,5372.00
2019-05-22T11:26:19.632Z,6432.00
2019-05-22T11:27:19.537Z,5928.00
2019-05-22T11:28:19.458Z,6684.00
2019-05-22T11:29:19.352Z,5536.00
2019-05-22T11:30:19.257Z,5372.00
2019-05-22T11:31:19.159Z,4968.00
2019-05-22T11:32:19.080Z,4808.00
2019-05-22T11:33:18.986Z,4840.00
2019-05-22T11:34:18.874Z,4760.00
2019-05-22T11:35:18.782Z,4604.00
2019-05-22T11:36:18.734Z,5128.00
2019-05-22T11:37:18.594Z,6452.00
2019-05-22T11:38:18.512Z,8896.00
2019-05-22T11:39:18.445Z,11740.00
2019-05-22T11:40:18.309Z,11708.00
2019-05-22T11:41:18.220Z,7332.00
2019-05-22T11:42:18.135Z,7440.00
2019-05-22T11:43:18.038Z,8264.00
2019-05-22T11:44:17.931Z,10884.00
2019-05-22T11:45:17.841Z,11032.00
2019-05-22T11:46:17.744Z,8336.00
2019-05-22T11:47:17.690Z,8728.00
2019-05-22T11:48:17.563Z,9472.00
2019-05-22T11:49:17.458Z,9988.00
2019-05-22T11:50:17.361Z,10528.00
2019-05-22T11:51:17.266Z,10080.00
2019-05-22T11:52:17.173Z,10116.00
2019-05-22T11:53:17.095Z,6908.00
2019-05-22T11:54:16.987Z,8040.00
2019-05-22T11:55:16.886Z,9268.00
2019-05-22T11:56:16.799Z,9748.00
2019-05-22T11:57:16.699Z,8692.00
2019-05-22T11:58:16.609Z,6188.00
2019-05-22T11:59:16.526Z,5840.00
2019-05-22T12:00:16.417Z,5264.00
2019-05-22T12:01:16.347Z,4748.00
2019-05-22T12:02:16.228Z,5284.00
2019-05-22T12:03:16.134Z,5952.00
2019-05-22T12:04:16.052Z,5888.00
2019-05-22T12:05:15.943Z,5064.00
2019-05-22T12:06:15.852Z,4168.00
2019-05-22T12:07:15.756Z,3552.00
2019-05-22T12:08:15.661Z,3496.00
2019-05-22T12:09:15.580Z,3176.00
2019-05-22T12:10:15.473Z,2880.00
2019-05-22T12:11:15.380Z,2808.00
2019-05-22T12:12:15.281Z,2856.00
2019-05-22T12:13:15.193Z,2872.00
2019-05-22T12:14:15.106Z,3220.00
2019-05-22T12:15:15.004Z,3016.00
2019-05-22T12:16:14.907Z,3528.00
2019-05-22T12:17:14.810Z,3876.00
2019-05-22T12:18:14.723Z,3932.00
2019-05-22T12:19:14.646Z,4788.00
2019-05-22T12:20:14.527Z,4660.00
2019-05-22T12:21:14.436Z,5080.00
2019-05-22T12:22:14.335Z,4876.00
2019-05-22T12:23:14.254Z,4392.00
2019-05-22T12:24:27.079Z,4392.00
2019-05-22T12:25:14.052Z,4740.00